createdAt,value
2023-04-26T00:01:58.953Z,100.00
2023-04-26T00:04:26.329Z,100.00
2023-04-26T00:06:53.461Z,100.00
2023-04-26T00:09:20.465Z,100.00
2023-04-26T00:11:47.475Z,100.00
2023-04-26T00:14:14.517Z,100.00
2023-04-26T00:16:41.540Z,100.00
2023-04-26T00:19:09.955Z,100.00
2023-04-26T00:21:37.132Z,100.00
2023-04-26T00:24:05.732Z,100.00
2023-04-26T00:26:34.446Z,100.00
2023-04-26T00:29:02.273Z,100.00
2023-04-26T00:31:29.436Z,100.00
2023-04-26T00:33:56.657Z,100.00
2023-04-26T00:36:23.695Z,100.00
2023-04-26T00:38:50.987Z,100.00
2023-04-26T00:41:18.208Z,100.00
2023-04-26T00:43:45.373Z,100.00
2023-04-26T00:46:12.791Z,100.00
2023-04-26T00:48:39.802Z,100.00
2023-04-26T00:51:07.447Z,100.00
2023-04-26T00:53:35.556Z,100.00
2023-04-26T00:56:03.144Z,100.00
2023-04-26T00:58:30.227Z,100.00
2023-04-26T01:00:57.321Z,100.00
2023-04-26T01:03:24.946Z,100.00
2023-04-26T01:05:52.579Z,100.00
2023-04-26T01:08:21.276Z,100.00
2023-04-26T01:10:51.243Z,100.00
2023-04-26T01:13:18.927Z,100.00
2023-04-26T01:15:47.585Z,100.00
2023-04-26T01:18:15.124Z,100.00
2023-04-26T01:20:43.159Z,100.00
2023-04-26T01:23:11.646Z,100.00
2023-04-26T01:25:38.977Z,100.00
2023-04-26T01:28:06.176Z,100.00
2023-04-26T01:30:33.293Z,100.00
2023-04-26T01:33:03.396Z,100.00
2023-04-26T01:35:30.621Z,100.00
2023-04-26T01:37:57.661Z,100.00
2023-04-26T01:40:24.619Z,100.00
2023-04-26T01:42:51.606Z,100.00
2023-04-26T01:45:18.687Z,100.00
2023-04-26T01:48:04.412Z,100.00
2023-04-26T01:50:32.554Z,100.00
2023-04-26T01:52:59.518Z,100.00
2023-04-26T01:55:26.844Z,100.00
2023-04-26T01:57:53.848Z,100.00
2023-04-26T02:00:20.952Z,100.00
2023-04-26T02:02:49.608Z,100.00
2023-04-26T02:05:16.784Z,100.00
2023-04-26T02:07:43.849Z,100.00
2023-04-26T02:10:10.976Z,100.00
2023-04-26T02:12:38.195Z,100.00
2023-04-26T02:15:06.360Z,100.00
2023-04-26T02:17:34.640Z,100.00
2023-04-26T02:20:01.793Z,100.00
2023-04-26T02:22:29.695Z,100.00
2023-04-26T02:24:56.754Z,100.00
2023-04-26T02:27:27.874Z,100.00
2023-04-26T02:29:54.911Z,100.00
2023-04-26T02:32:22.109Z,100.00
2023-04-26T02:34:49.713Z,100.00
2023-04-26T02:37:16.683Z,100.00
2023-04-26T02:39:43.776Z,100.00
2023-04-26T02:42:11.100Z,100.00
2023-04-26T02:44:40.185Z,100.00
2023-04-26T02:47:07.914Z,100.00
2023-04-26T02:49:35.222Z,100.00
2023-04-26T02:52:02.259Z,100.00
2023-04-26T02:54:29.902Z,100.00
2023-04-26T02:56:58.423Z,100.00
2023-04-26T02:59:25.488Z,100.00
2023-04-26T03:01:52.576Z,100.00
2023-04-26T03:04:19.745Z,100.00
2023-04-26T03:06:46.788Z,100.00
2023-04-26T03:09:14.026Z,100.00
2023-04-26T03:11:41.561Z,100.00
2023-04-26T03:14:08.635Z,100.00
2023-04-26T03:16:41.650Z,100.00
2023-04-26T03:19:08.689Z,100.00
2023-04-26T03:21:36.355Z,100.00
2023-04-26T03:24:04.257Z,100.00
2023-04-26T03:26:31.286Z,100.00
2023-04-26T03:28:58.489Z,100.00
2023-04-26T03:31:25.734Z,100.00
2023-04-26T03:33:52.906Z,100.00
2023-04-26T03:36:20.302Z,100.00
2023-04-26T03:38:47.373Z,100.00
2023-04-26T03:41:14.879Z,100.00
2023-04-26T03:43:41.988Z,100.00
2023-04-26T03:46:09.164Z,100.00
2023-04-26T03:48:36.692Z,100.00
2023-04-26T03:51:04.205Z,100.00
2023-04-26T03:53:31.253Z,100.00
2023-04-26T03:55:58.282Z,100.00
2023-04-26T03:58:26.137Z,100.00
2023-04-26T04:00:56.204Z,100.00
2023-04-26T04:03:23.685Z,100.00
2023-04-26T04:05:52.003Z,100.00
2023-04-26T04:08:19.043Z,100.00
2023-04-26T04:10:46.031Z,100.00
2023-04-26T04:13:13.055Z,99.68
2023-04-26T04:15:40.908Z,96.35
2023-04-26T04:18:08.076Z,91.78
2023-04-26T04:20:35.091Z,89.00
2023-04-26T04:23:04.544Z,89.13
2023-04-26T04:25:32.701Z,86.14
2023-04-26T04:28:03.039Z,83.14
2023-04-26T04:30:30.968Z,78.23
2023-04-26T04:33:00.994Z,75.99
2023-04-26T04:35:33.809Z,74.23
2023-04-26T04:38:03.527Z,68.28
2023-04-26T04:40:30.783Z,65.67
2023-04-26T04:42:58.093Z,62.89
2023-04-26T04:45:27.199Z,60.62
2023-04-26T04:47:56.446Z,56.73
2023-04-26T04:50:23.713Z,52.99
2023-04-26T04:52:50.759Z,52.82
2023-04-26T04:55:17.792Z,50.82
2023-04-26T04:57:45.135Z,51.55
2023-04-26T05:00:13.095Z,49.27
2023-04-26T05:03:02.983Z,47.18
2023-04-26T05:05:31.359Z,46.13
2023-04-26T05:07:58.382Z,44.46
2023-04-26T05:10:26.615Z,42.74
2023-04-26T05:12:53.938Z,41.21
2023-04-26T05:15:21.056Z,40.09
2023-04-26T05:17:48.146Z,39.75
2023-04-26T05:20:21.805Z,39.16
2023-04-26T05:22:49.353Z,37.85
2023-04-26T05:25:17.688Z,37.89
2023-04-26T05:27:48.020Z,37.82
2023-04-26T05:30:47.581Z,38.06
2023-04-26T05:33:33.706Z,37.91
2023-04-26T05:36:15.921Z,36.14
2023-04-26T05:38:42.963Z,35.76
2023-04-26T05:41:09.942Z,35.08
2023-04-26T05:43:37.637Z,34.74
2023-04-26T05:46:05.414Z,34.18
2023-04-26T05:48:32.444Z,33.61
2023-04-26T05:50:59.456Z,32.78
2023-04-26T05:53:26.480Z,31.95
2023-04-26T05:55:53.523Z,30.72
2023-04-26T05:58:20.926Z,30.15
2023-04-26T06:00:48.116Z,30.10
2023-04-26T06:03:15.403Z,30.13
2023-04-26T06:05:42.919Z,30.20
2023-04-26T06:08:10.116Z,30.68
2023-04-26T06:10:37.803Z,30.92
2023-04-26T06:13:05.009Z,30.71
2023-04-26T06:15:34.220Z,30.81
2023-04-26T06:18:01.414Z,30.32
2023-04-26T06:20:28.581Z,30.51
2023-04-26T06:22:55.712Z,30.14
2023-04-26T06:25:22.958Z,29.57
2023-04-26T06:27:50.065Z,29.73
2023-04-26T06:30:17.262Z,29.24
2023-04-26T06:32:47.111Z,29.40
2023-04-26T06:35:14.519Z,29.67
2023-04-26T06:37:42.203Z,29.59
2023-04-26T06:40:11.220Z,28.96
2023-04-26T06:42:38.304Z,29.13
2023-04-26T06:45:32.353Z,29.64
2023-04-26T06:48:02.188Z,29.88
2023-04-26T06:50:29.483Z,28.27
2023-04-26T06:52:56.514Z,28.01
2023-04-26T06:55:24.090Z,26.99
2023-04-26T06:57:51.165Z,26.90
2023-04-26T07:00:18.494Z,26.76
2023-04-26T07:02:46.013Z,26.60
2023-04-26T07:05:13.555Z,26.75
2023-04-26T07:07:41.031Z,27.62
2023-04-26T07:10:09.781Z,28.35
2023-04-26T07:12:36.939Z,28.89
2023-04-26T07:15:06.722Z,29.01
2023-04-26T07:17:33.755Z,28.04
2023-04-26T07:20:01.185Z,27.41
2023-04-26T07:22:28.223Z,28.06
2023-04-26T07:24:55.291Z,28.70
2023-04-26T07:27:22.345Z,28.67
2023-04-26T07:29:49.569Z,28.64
2023-04-26T07:32:16.631Z,28.67
2023-04-26T07:34:43.694Z,28.74
2023-04-26T07:37:10.661Z,28.87
2023-04-26T07:39:37.700Z,28.75
2023-04-26T07:42:04.865Z,28.91
2023-04-26T07:44:31.839Z,28.54
2023-04-26T07:46:58.885Z,28.38
2023-04-26T07:49:25.922Z,28.22
2023-04-26T07:51:53.140Z,28.49
2023-04-26T07:54:20.173Z,28.97
2023-04-26T07:56:47.127Z,29.13
2023-04-26T07:59:14.200Z,29.05
2023-04-26T08:01:41.644Z,28.37
2023-04-26T08:04:08.998Z,28.41
2023-04-26T08:06:36.297Z,27.58
2023-04-26T08:09:05.144Z,27.70
2023-04-26T08:11:32.866Z,27.12
2023-04-26T08:13:59.969Z,27.21
2023-04-26T08:16:27.048Z,26.70
2023-04-26T08:18:54.898Z,26.08
2023-04-26T08:21:21.893Z,26.18
2023-04-26T08:23:48.866Z,27.10
2023-04-26T08:26:15.783Z,27.75
2023-04-26T08:28:42.787Z,27.59
2023-04-26T08:31:10.371Z,27.74
2023-04-26T08:33:37.522Z,27.96
2023-04-26T08:36:05.226Z,28.18
2023-04-26T08:38:32.717Z,27.94
2023-04-26T08:41:02.125Z,28.70
2023-04-26T08:43:29.620Z,29.19
2023-04-26T08:45:56.970Z,28.81
2023-04-26T08:48:23.980Z,28.49
2023-04-26T08:50:51.611Z,28.38
2023-04-26T08:53:18.639Z,28.44
2023-04-26T08:55:49.562Z,28.47
2023-04-26T08:58:17.523Z,29.44
2023-04-26T09:00:47.420Z,30.40
2023-04-26T09:03:14.774Z,31.14
2023-04-26T09:05:45.755Z,31.00
2023-04-26T09:08:18.850Z,30.37
2023-04-26T09:10:45.817Z,30.26
2023-04-26T09:13:13.061Z,29.99
2023-04-26T09:15:40.381Z,30.21
2023-04-26T09:18:20.904Z,31.54
2023-04-26T09:21:02.553Z,31.62
2023-04-26T09:23:29.512Z,31.35
2023-04-26T09:25:56.468Z,31.15
2023-04-26T09:28:24.088Z,30.73
2023-04-26T09:30:51.250Z,30.54
2023-04-26T09:33:19.634Z,31.46
2023-04-26T09:35:46.749Z,31.62
2023-04-26T09:38:15.330Z,32.44
2023-04-26T09:40:46.768Z,33.13
2023-04-26T09:43:16.194Z,31.44
2023-04-26T09:45:53.254Z,30.44
2023-04-26T09:48:23.894Z,30.09
2023-04-26T09:51:09.094Z,30.53
2023-04-26T09:53:46.544Z,29.38
2023-04-26T09:56:19.066Z,28.43
2023-04-26T09:58:58.967Z,28.37
2023-04-26T10:01:27.063Z,27.90
2023-04-26T10:03:54.421Z,27.99
2023-04-26T10:06:21.556Z,28.71
2023-04-26T10:08:48.575Z,28.80
2023-04-26T10:11:15.713Z,29.40
2023-04-26T10:13:43.071Z,28.49
2023-04-26T10:16:10.566Z,28.29
2023-04-26T10:18:37.783Z,29.50
2023-04-26T10:21:31.646Z,29.23
2023-04-26T10:23:59.781Z,28.98
2023-04-26T10:26:53.161Z,29.01
2023-04-26T10:29:20.980Z,29.35
2023-04-26T10:32:06.611Z,29.17
2023-04-26T10:34:34.284Z,29.79
2023-04-26T10:37:14.439Z,29.51
2023-04-26T10:39:46.482Z,29.70
2023-04-26T10:42:27.698Z,29.67
2023-04-26T10:44:56.181Z,29.24
2023-04-26T10:47:31.933Z,28.71
2023-04-26T10:50:05.570Z,28.36
2023-04-26T10:52:33.294Z,27.66
2023-04-26T10:55:00.396Z,27.77
2023-04-26T10:57:51.645Z,28.99
2023-04-26T11:00:21.261Z,29.76
2023-04-26T11:03:04.905Z,29.61
2023-04-26T11:05:37.591Z,30.44
2023-04-26T11:08:18.402Z,31.58
2023-04-26T11:10:50.909Z,31.55
2023-04-26T11:13:18.309Z,30.58
2023-04-26T11:15:46.380Z,29.41
2023-04-26T11:18:13.356Z,29.56
2023-04-26T11:20:40.425Z,29.78
2023-04-26T11:23:07.997Z,29.85
2023-04-26T11:25:34.966Z,29.16
2023-04-26T11:28:02.567Z,29.29
2023-04-26T11:30:33.110Z,29.56
2023-04-26T11:33:00.891Z,29.16
2023-04-26T11:35:29.820Z,29.43
2023-04-26T11:38:00.870Z,28.81
2023-04-26T11:40:30.041Z,29.58
2023-04-26T11:43:15.649Z,29.30
2023-04-26T11:45:42.786Z,29.12
2023-04-26T11:48:10.925Z,29.52
2023-04-26T11:50:38.566Z,29.56
2023-04-26T11:53:06.957Z,29.60
2023-04-26T11:55:34.331Z,29.51
2023-04-26T11:58:03.306Z,28.77
2023-04-26T12:00:30.444Z,28.66
2023-04-26T12:02:58.474Z,28.84
2023-04-26T12:05:27.045Z,28.55
2023-04-26T12:07:55.786Z,28.33
2023-04-26T12:10:34.831Z,28.25
2023-04-26T12:13:01.836Z,28.67
2023-04-26T12:15:33.244Z,27.93
2023-04-26T12:18:11.063Z,28.07
2023-04-26T12:20:40.121Z,27.94
2023-04-26T12:23:07.720Z,28.48
2023-04-26T12:25:36.261Z,29.20
2023-04-26T12:28:12.581Z,29.62
2023-04-26T12:30:40.223Z,30.35
2023-04-26T12:33:16.272Z,30.96
2023-04-26T12:35:44.624Z,31.50
2023-04-26T12:38:12.571Z,31.93
2023-04-26T12:40:39.812Z,32.06
2023-04-26T12:43:06.956Z,32.44
2023-04-26T12:45:34.036Z,32.45
2023-04-26T12:48:01.201Z,31.84
2023-04-26T12:50:28.250Z,31.02
2023-04-26T12:52:55.283Z,30.66
2023-04-26T12:55:22.252Z,31.18
2023-04-26T12:57:49.291Z,30.51
2023-04-26T13:00:17.779Z,30.73
2023-04-26T13:02:44.931Z,31.63
2023-04-26T13:05:12.733Z,30.64
2023-04-26T13:07:42.602Z,30.28
2023-04-26T13:10:12.854Z,31.18
2023-04-26T13:12:40.467Z,31.90
2023-04-26T13:15:08.340Z,32.30
2023-04-26T13:17:36.331Z,32.74
2023-04-26T13:20:04.743Z,32.72
2023-04-26T13:22:31.757Z,32.63
2023-04-26T13:24:58.784Z,32.82
2023-04-26T13:27:25.901Z,33.96
2023-04-26T13:29:53.483Z,33.90
2023-04-26T13:32:20.511Z,33.14
2023-04-26T13:34:47.600Z,33.54
2023-04-26T13:37:14.682Z,34.19
2023-04-26T13:39:41.615Z,34.31
2023-04-26T13:42:08.688Z,34.68
2023-04-26T13:44:35.803Z,34.29
2023-04-26T13:47:02.801Z,34.45
2023-04-26T13:49:29.827Z,35.12
2023-04-26T13:51:56.788Z,35.42
2023-04-26T13:54:25.981Z,35.97
2023-04-26T13:56:53.693Z,35.99
2023-04-26T13:59:20.894Z,36.32
2023-04-26T14:01:47.983Z,35.52
2023-04-26T14:04:15.319Z,35.51
2023-04-26T14:06:42.485Z,35.33
2023-04-26T14:09:09.690Z,35.83
2023-04-26T14:11:36.775Z,36.11
2023-04-26T14:14:03.806Z,36.28
2023-04-26T14:16:30.947Z,36.45
2023-04-26T14:18:58.037Z,36.50
2023-04-26T14:21:25.034Z,36.80
2023-04-26T14:23:51.998Z,36.84
2023-04-26T14:26:20.361Z,36.25
2023-04-26T14:28:48.140Z,37.00
2023-04-26T14:31:17.788Z,37.19
2023-04-26T14:33:44.877Z,37.07
2023-04-26T14:36:12.783Z,36.72
2023-04-26T14:38:43.772Z,37.57
2023-04-26T14:41:15.722Z,37.95
2023-04-26T14:43:43.660Z,38.00
2023-04-26T14:46:10.678Z,38.59
2023-04-26T14:48:37.763Z,38.78
2023-04-26T14:51:04.825Z,38.66
2023-04-26T14:53:31.812Z,39.14
2023-04-26T14:55:58.868Z,39.45
2023-04-26T14:58:26.358Z,40.21
2023-04-26T15:00:53.667Z,40.93
2023-04-26T15:03:20.996Z,41.95
2023-04-26T15:05:48.127Z,43.23
2023-04-26T15:08:15.271Z,44.12
2023-04-26T15:10:42.576Z,45.75
2023-04-26T15:13:09.574Z,46.09
2023-04-26T15:15:36.623Z,46.51
2023-04-26T15:18:03.936Z,47.13
2023-04-26T15:20:31.240Z,49.02
2023-04-26T15:22:58.264Z,49.77
2023-04-26T15:25:25.302Z,48.59
2023-04-26T15:27:52.268Z,49.43
2023-04-26T15:30:19.327Z,49.76
2023-04-26T15:32:50.526Z,51.08
2023-04-26T15:35:17.583Z,52.90
2023-04-26T15:37:44.772Z,54.30
2023-04-26T15:40:12.244Z,54.31
2023-04-26T15:42:39.425Z,54.46
2023-04-26T15:45:07.093Z,54.64
2023-04-26T15:47:35.533Z,54.97
2023-04-26T15:50:03.891Z,56.34
2023-04-26T15:52:36.261Z,56.23
2023-04-26T15:55:07.202Z,57.55
2023-04-26T15:57:34.793Z,58.77
2023-04-26T16:00:02.158Z,59.67
2023-04-26T16:02:31.493Z,61.37
2023-04-26T16:04:58.873Z,61.91
2023-04-26T16:07:26.596Z,63.04
2023-04-26T16:09:53.650Z,61.04
2023-04-26T16:12:20.664Z,61.65
2023-04-26T16:14:48.983Z,61.91
2023-04-26T16:17:16.143Z,60.75
2023-04-26T16:19:43.226Z,60.09
2023-04-26T16:22:10.177Z,60.85
2023-04-26T16:24:37.274Z,61.37
2023-04-26T16:27:04.840Z,62.58
2023-04-26T16:29:31.818Z,63.47
2023-04-26T16:31:58.954Z,64.74
2023-04-26T16:34:26.874Z,65.53
2023-04-26T16:36:53.826Z,66.09
2023-04-26T16:39:21.692Z,67.10
2023-04-26T16:41:48.893Z,68.61
2023-04-26T16:44:16.847Z,69.88
2023-04-26T16:46:43.937Z,71.55
2023-04-26T16:49:11.032Z,73.34
2023-04-26T16:51:38.256Z,75.81
2023-04-26T16:54:05.531Z,77.80
2023-04-26T16:56:32.594Z,79.68
2023-04-26T16:58:59.691Z,82.04
2023-04-26T17:01:26.977Z,84.96
2023-04-26T17:03:54.388Z,87.88
2023-04-26T17:06:21.552Z,89.26
2023-04-26T17:08:48.655Z,90.75
2023-04-26T17:11:16.298Z,92.60
2023-04-26T17:13:43.600Z,94.68
2023-04-26T17:16:10.705Z,97.02
2023-04-26T17:18:37.775Z,99.73
2023-04-26T17:21:05.125Z,100.00
2023-04-26T17:23:33.864Z,100.00
2023-04-26T17:26:01.919Z,100.00
2023-04-26T17:28:29.381Z,100.00
2023-04-26T17:30:56.387Z,100.00
2023-04-26T17:33:23.745Z,100.00
2023-04-26T17:35:50.695Z,100.00
2023-04-26T17:38:17.797Z,100.00
2023-04-26T17:40:44.808Z,100.00
2023-04-26T17:43:11.944Z,100.00
2023-04-26T17:45:38.979Z,100.00
2023-04-26T17:48:10.955Z,100.00
2023-04-26T17:50:38.005Z,100.00
2023-04-26T17:53:06.139Z,100.00
2023-04-26T17:55:33.386Z,100.00
2023-04-26T17:58:00.919Z,100.00
2023-04-26T18:00:28.056Z,100.00
2023-04-26T18:02:56.379Z,100.00
2023-04-26T18:05:24.622Z,100.00
2023-04-26T18:07:51.969Z,100.00
2023-04-26T18:10:19.173Z,100.00
2023-04-26T18:12:46.390Z,100.00
2023-04-26T18:15:14.033Z,100.00
2023-04-26T18:17:41.618Z,100.00
2023-04-26T18:20:09.458Z,100.00
2023-04-26T18:22:36.459Z,100.00
2023-04-26T18:25:04.025Z,100.00
2023-04-26T18:27:31.656Z,100.00
2023-04-26T18:29:58.841Z,100.00
2023-04-26T18:32:26.120Z,100.00
2023-04-26T18:34:53.122Z,100.00
2023-04-26T18:37:20.417Z,100.00
2023-04-26T18:39:48.746Z,100.00
2023-04-26T18:42:15.993Z,100.00
2023-04-26T18:44:43.013Z,100.00
2023-04-26T18:47:10.051Z,100.00
2023-04-26T18:49:37.145Z,100.00
2023-04-26T18:52:04.565Z,100.00
2023-04-26T18:54:33.198Z,100.00
2023-04-26T18:57:01.318Z,100.00
2023-04-26T18:59:30.372Z,100.00
2023-04-26T19:01:57.487Z,100.00
2023-04-26T19:04:24.722Z,100.00
2023-04-26T19:06:51.950Z,100.00
2023-04-26T19:09:18.927Z,100.00
2023-04-26T19:11:46.412Z,100.00
2023-04-26T19:14:13.493Z,100.00
2023-04-26T19:16:40.568Z,100.00
2023-04-26T19:19:07.554Z,100.00
2023-04-26T19:21:35.258Z,100.00
2023-04-26T19:24:02.294Z,100.00
2023-04-26T19:26:29.283Z,100.00
2023-04-26T19:28:56.359Z,100.00
2023-04-26T19:31:23.440Z,100.00
2023-04-26T19:33:50.544Z,100.00
2023-04-26T19:36:17.606Z,100.00
2023-04-26T19:38:44.738Z,100.00
2023-04-26T19:41:11.761Z,100.00
2023-04-26T19:43:38.803Z,100.00
2023-04-26T19:46:13.111Z,100.00
2023-04-26T19:48:41.123Z,100.00
2023-04-26T19:51:08.115Z,100.00
2023-04-26T19:53:35.411Z,100.00
2023-04-26T19:56:03.246Z,100.00
2023-04-26T19:58:30.333Z,100.00
2023-04-26T20:00:57.392Z,100.00
2023-04-26T20:03:24.711Z,100.00
2023-04-26T20:05:51.834Z,100.00
2023-04-26T20:08:19.281Z,100.00
2023-04-26T20:10:46.277Z,100.00
2023-04-26T20:13:13.313Z,100.00
2023-04-26T20:15:40.337Z,100.00
2023-04-26T20:18:07.474Z,100.00
2023-04-26T20:20:34.525Z,100.00
2023-04-26T20:23:03.169Z,100.00
2023-04-26T20:25:30.231Z,100.00
2023-04-26T20:27:57.423Z,100.00
2023-04-26T20:30:24.584Z,100.00
2023-04-26T20:32:51.607Z,100.00
2023-04-26T20:35:18.626Z,100.00
2023-04-26T20:37:45.923Z,100.00
2023-04-26T20:40:13.092Z,100.00
2023-04-26T20:42:40.146Z,100.00
2023-04-26T20:45:07.659Z,100.00
2023-04-26T20:47:34.678Z,100.00
2023-04-26T20:50:01.680Z,100.00
2023-04-26T20:52:28.699Z,100.00
2023-04-26T20:54:57.346Z,100.00
2023-04-26T20:57:24.562Z,100.00
2023-04-26T20:59:51.526Z,100.00
2023-04-26T21:04:43.540Z,100.00
2023-04-26T21:07:10.788Z,100.00
2023-04-26T21:09:38.040Z,100.00
2023-04-26T21:12:05.775Z,100.00
2023-04-26T21:14:33.019Z,100.00
2023-04-26T21:17:01.679Z,100.00
2023-04-26T21:19:28.798Z,100.00
2023-04-26T21:21:57.495Z,100.00
2023-04-26T21:24:24.565Z,100.00
2023-04-26T21:26:51.676Z,100.00
2023-04-26T21:29:18.827Z,100.00
2023-04-26T21:31:46.192Z,100.00
2023-04-26T21:34:13.576Z,100.00
2023-04-26T21:36:40.712Z,100.00
2023-04-26T21:39:07.998Z,100.00
2023-04-26T21:41:35.297Z,100.00
2023-04-26T21:44:02.543Z,100.00
2023-04-26T21:46:29.921Z,100.00
2023-04-26T21:48:57.152Z,100.00
2023-04-26T21:51:24.811Z,100.00
2023-04-26T21:53:51.936Z,100.00
2023-04-26T21:56:19.154Z,100.00
2023-04-26T21:58:46.570Z,100.00
2023-04-26T22:01:14.915Z,100.00
2023-04-26T22:03:42.165Z,100.00
2023-04-26T22:06:09.835Z,100.00
2023-04-26T22:08:37.014Z,100.00
2023-04-26T22:11:04.282Z,100.00
2023-04-26T22:13:31.533Z,100.00
2023-04-26T22:15:58.745Z,100.00
2023-04-26T22:18:29.541Z,100.00
2023-04-26T22:20:56.764Z,100.00
2023-04-26T22:23:23.933Z,100.00
2023-04-26T22:25:51.094Z,100.00
2023-04-26T22:28:18.218Z,100.00
2023-04-26T22:30:45.357Z,100.00
2023-04-26T22:33:12.595Z,100.00
2023-04-26T22:35:39.870Z,100.00
2023-04-26T22:38:07.136Z,100.00
2023-04-26T22:40:34.395Z,100.00
2023-04-26T22:43:02.079Z,100.00
2023-04-26T22:45:29.193Z,100.00
2023-04-26T22:47:56.359Z,100.00
2023-04-26T22:50:23.844Z,100.00
2023-04-26T22:52:51.294Z,100.00
2023-04-26T22:55:18.542Z,100.00
2023-04-26T22:57:46.792Z,100.00
2023-04-26T23:00:14.837Z,100.00
2023-04-26T23:02:42.096Z,100.00
2023-04-26T23:05:12.712Z,100.00
2023-04-26T23:07:40.241Z,100.00
2023-04-26T23:10:08.106Z,100.00
2023-04-26T23:12:36.377Z,100.00
2023-04-26T23:15:05.354Z,100.00
2023-04-26T23:17:34.380Z,100.00
2023-04-26T23:20:01.691Z,100.00
2023-04-26T23:22:28.772Z,100.00
2023-04-26T23:24:56.170Z,100.00
2023-04-26T23:27:25.076Z,100.00
2023-04-26T23:29:52.253Z,100.00
2023-04-26T23:32:19.473Z,100.00
2023-04-26T23:34:46.725Z,100.00
2023-04-26T23:37:13.867Z,100.00
2023-04-26T23:39:41.233Z,100.00
2023-04-26T23:42:08.304Z,100.00
2023-04-26T23:44:35.520Z,100.00
2023-04-26T23:47:02.694Z,100.00
2023-04-26T23:49:29.820Z,100.00
2023-04-26T23:51:57.035Z,100.00
2023-04-26T23:54:24.229Z,100.00
2023-04-26T23:56:51.480Z,100.00
2023-04-26T23:59:18.630Z,100.00
